RMK AO2

Tweets about a recent trend: RMK AO2

RT @KSFO_wx: #KSFO 221556Z 00000KT 10SM FEW009 BKN200 15/11 A2991 RMK AO2 SLP128 T01500111 $
#PHNL 221553Z 05010KT 9SM FEW027 FEW038 25/18 A3000 RMK AO2 SLP160 T02500183
#KLOT 221555Z AUTO 23007KT 10SM SCT065 SCT100 10/02 A3013 RMK AO2 T01020023
#PANC 221553Z 36014G22KT 10SM FEW080 SCT250 M01/M11 A2983 RMK AO2 SLP102 T10061106
#KLAF 221554Z 26005KT 10SM CLR 10/02 A3015 RMK AO2 SLP211 T01000017
#KMDW 221553Z 24009KT 10SM FEW025 BKN065 BKN110 10/M01 A3012 RMK AO2 SLP204 T01001011
#KSTL 221551Z 20005KT 10SM CLR 15/05 A3018 RMK AO2 SLP219 T01500050
#KDFW 221553Z 20015KT 10SM CLR 21/06 A3019 RMK AO2 SLP219 T02110056
#KATL 221552Z 34017G25KT 10SM FEW040 15/02 A3011 RMK AO2 PK WND 36027/1456 SLP195 T01500017
#KPBI 221553Z 32009KT 10SM CLR 25/15 A2999 RMK AO2 SLP154 T02500150
#KMIA 221553Z 32007KT 290V350 10SM CLR 26/14 A2998 RMK AO2 SLP153 T02610139
#KLAX 221553Z 08003KT 10SM CLR 21/02 A2989 RMK AO2 SLP121 T02110022
#KORD 221551Z 23008KT 10SM BKN065 BKN100 10/M01 A3011 RMK AO2 SLP199 T01001011
#KJFK 221551Z 30023G32KT 10SM SCT030 OVC037 10/03 A2945 RMK AO2 PK WND 31033/1540 RAE04B17E38 SLP972 P0000 T01000033
#KSFO 221556Z 00000KT 10SM FEW009 BKN200 15/11 A2991 RMK AO2 SLP128 T01500111 $
KOSH 221553Z 19010KT 10SM OVC060 08/02 A3004 RMK AO2 SLP180 T00830017
KORD 221551Z 23008KT 10SM BKN065 BKN100 10/M01 A3011 RMK AO2 SLP199 T01001011
KJFK 221551Z 30023G32KT 10SM SCT030 OVC037 10/03 A2945 RMK AO2 PK WND 31033/1540 RAE04B17E38 SLP972 P0000 T01000033
KATL 221552Z 34017G25KT 10SM FEW040 15/02 A3011 RMK AO2 PK WND 36027/1456 SLP195 T01500017
KONT 221553Z 00000KT 10SM FEW250 21/00 A2992 RMK AO2 SLP121 T02060000
KSFO 221556Z 00000KT 10SM FEW009 BKN200 15/11 A2991 RMK AO2 SLP128 T01500111 $
KJFK 221551Z 30023G32KT 10SM SCT030 OVC037 10/03 A2945 RMK AO2 PK WND 31033/1540 RAE04B17E38 SLP972 P0000 T01000033
KLAX 221553Z 08003KT 10SM CLR 21/02 A2989 RMK AO2 SLP121 T02110022
#KLOT 221535Z AUTO 23006KT 10SM OVC065 09/02 A3014 RMK AO2 T00910018
RT @metar_kjfk: KJFK 221509Z 31024G30KT 10SM OVC030 10/04 A2943 RMK AO2 PK WND 31030/1507 RAE04 P0000 T01000044